sensor_id;sensor_type;location;lat;lon;timestamp;P1;durP1;ratioP1;P2;durP2;ratioP2
26040;SDS011;13816;53.628;9.950;2023-04-06T00:01:38;9.37;;;6.33;;
26040;SDS011;13816;53.628;9.950;2023-04-06T00:04:05;7.70;;;6.10;;
26040;SDS011;13816;53.628;9.950;2023-04-06T00:06:31;8.63;;;6.93;;
26040;SDS011;13816;53.628;9.950;2023-04-06T00:08:58;9.97;;;7.93;;
26040;SDS011;13816;53.628;9.950;2023-04-06T00:11:25;7.90;;;6.57;;
26040;SDS011;13816;53.628;9.950;2023-04-06T00:13:51;8.00;;;6.57;;
26040;SDS011;13816;53.628;9.950;2023-04-06T00:16:17;10.17;;;7.47;;
26040;SDS011;13816;53.628;9.950;2023-04-06T00:18:44;8.30;;;6.70;;
26040;SDS011;13816;53.628;9.950;2023-04-06T00:21:12;9.90;;;6.63;;
26040;SDS011;13816;53.628;9.950;2023-04-06T00:23:40;8.60;;;6.30;;
26040;SDS011;13816;53.628;9.950;2023-04-06T00:26:06;9.40;;;6.47;;
26040;SDS011;13816;53.628;9.950;2023-04-06T00:28:32;10.57;;;7.17;;
26040;SDS011;13816;53.628;9.950;2023-04-06T00:30:58;10.10;;;7.20;;
26040;SDS011;13816;53.628;9.950;2023-04-06T00:33:25;7.30;;;6.57;;
26040;SDS011;13816;53.628;9.950;2023-04-06T00:35:51;8.17;;;6.87;;
26040;SDS011;13816;53.628;9.950;2023-04-06T00:38:17;7.83;;;6.17;;
26040;SDS011;13816;53.628;9.950;2023-04-06T00:40:43;8.63;;;7.00;;
26040;SDS011;13816;53.628;9.950;2023-04-06T00:43:11;8.67;;;6.77;;
26040;SDS011;13816;53.628;9.950;2023-04-06T00:45:40;9.63;;;6.83;;
26040;SDS011;13816;53.628;9.950;2023-04-06T00:48:07;8.13;;;6.70;;
26040;SDS011;13816;53.628;9.950;2023-04-06T00:50:33;7.93;;;6.40;;
26040;SDS011;13816;53.628;9.950;2023-04-06T00:52:59;9.30;;;6.57;;
26040;SDS011;13816;53.628;9.950;2023-04-06T00:55:29;10.20;;;7.50;;
26040;SDS011;13816;53.628;9.950;2023-04-06T00:57:58;10.50;;;8.20;;
26040;SDS011;13816;53.628;9.950;2023-04-06T01:00:28;10.33;;;8.00;;
26040;SDS011;13816;53.628;9.950;2023-04-06T01:02:57;8.83;;;6.90;;
26040;SDS011;13816;53.628;9.950;2023-04-06T01:05:35;10.17;;;8.03;;
26040;SDS011;13816;53.628;9.950;2023-04-06T01:08:07;10.80;;;7.67;;
26040;SDS011;13816;53.628;9.950;2023-04-06T01:10:34;8.93;;;6.80;;
26040;SDS011;13816;53.628;9.950;2023-04-06T01:13:13;9.53;;;7.07;;
26040;SDS011;13816;53.628;9.950;2023-04-06T01:15:46;8.70;;;7.10;;
26040;SDS011;13816;53.628;9.950;2023-04-06T01:18:18;8.23;;;6.57;;
26040;SDS011;13816;53.628;9.950;2023-04-06T01:20:54;9.77;;;6.53;;
26040;SDS011;13816;53.628;9.950;2023-04-06T01:23:23;9.60;;;6.87;;
26040;SDS011;13816;53.628;9.950;2023-04-06T01:25:49;10.73;;;7.00;;
26040;SDS011;13816;53.628;9.950;2023-04-06T01:28:16;10.43;;;6.73;;
26040;SDS011;13816;53.628;9.950;2023-04-06T01:31:02;7.17;;;6.50;;
26040;SDS011;13816;53.628;9.950;2023-04-06T01:33:42;7.97;;;7.17;;
26040;SDS011;13816;53.628;9.950;2023-04-06T01:36:12;9.77;;;7.37;;
26040;SDS011;13816;53.628;9.950;2023-04-06T01:38:38;9.00;;;6.90;;
26040;SDS011;13816;53.628;9.950;2023-04-06T01:41:07;8.10;;;6.57;;
26040;SDS011;13816;53.628;9.950;2023-04-06T01:43:44;11.13;;;6.73;;
26040;SDS011;13816;53.628;9.950;2023-04-06T01:46:11;11.30;;;7.50;;
26040;SDS011;13816;53.628;9.950;2023-04-06T01:48:40;8.33;;;6.20;;
26040;SDS011;13816;53.628;9.950;2023-04-06T01:51:27;8.93;;;6.50;;
26040;SDS011;13816;53.628;9.950;2023-04-06T01:53:57;9.87;;;6.67;;
26040;SDS011;13816;53.628;9.950;2023-04-06T01:56:33;10.07;;;6.93;;
26040;SDS011;13816;53.628;9.950;2023-04-06T01:59:14;11.50;;;7.20;;
26040;SDS011;13816;53.628;9.950;2023-04-06T02:01:42;11.37;;;6.77;;
26040;SDS011;13816;53.628;9.950;2023-04-06T02:04:08;9.53;;;7.10;;
26040;SDS011;13816;53.628;9.950;2023-04-06T02:06:34;11.03;;;6.20;;
26040;SDS011;13816;53.628;9.950;2023-04-06T02:09:03;11.40;;;8.40;;
26040;SDS011;13816;53.628;9.950;2023-04-06T02:11:29;9.63;;;6.53;;
26040;SDS011;13816;53.628;9.950;2023-04-06T02:13:56;8.10;;;6.30;;
26040;SDS011;13816;53.628;9.950;2023-04-06T02:16:26;9.93;;;6.97;;
26040;SDS011;13816;53.628;9.950;2023-04-06T02:18:53;8.10;;;6.10;;
26040;SDS011;13816;53.628;9.950;2023-04-06T02:21:19;8.50;;;7.20;;
26040;SDS011;13816;53.628;9.950;2023-04-06T02:23:46;9.37;;;6.50;;
26040;SDS011;13816;53.628;9.950;2023-04-06T02:26:13;9.13;;;6.20;;
26040;SDS011;13816;53.628;9.950;2023-04-06T02:28:39;8.40;;;6.30;;
26040;SDS011;13816;53.628;9.950;2023-04-06T02:31:05;7.90;;;5.80;;
26040;SDS011;13816;53.628;9.950;2023-04-06T02:33:31;7.90;;;5.80;;
26040;SDS011;13816;53.628;9.950;2023-04-06T02:35:59;9.33;;;6.87;;
26040;SDS011;13816;53.628;9.950;2023-04-06T02:38:25;10.10;;;6.40;;
26040;SDS011;13816;53.628;9.950;2023-04-06T02:40:51;6.77;;;5.53;;
26040;SDS011;13816;53.628;9.950;2023-04-06T02:43:23;7.53;;;6.13;;
26040;SDS011;13816;53.628;9.950;2023-04-06T02:45:54;8.00;;;5.77;;
26040;SDS011;13816;53.628;9.950;2023-04-06T02:48:22;7.63;;;5.27;;
26040;SDS011;13816;53.628;9.950;2023-04-06T02:50:48;10.37;;;5.87;;
26040;SDS011;13816;53.628;9.950;2023-04-06T02:53:14;10.53;;;5.63;;
26040;SDS011;13816;53.628;9.950;2023-04-06T02:55:41;8.43;;;5.67;;
26040;SDS011;13816;53.628;9.950;2023-04-06T02:58:07;14.10;;;7.37;;
26040;SDS011;13816;53.628;9.950;2023-04-06T03:00:43;10.83;;;6.10;;
26040;SDS011;13816;53.628;9.950;2023-04-06T03:03:09;8.27;;;5.90;;
26040;SDS011;13816;53.628;9.950;2023-04-06T03:05:36;8.00;;;6.20;;
26040;SDS011;13816;53.628;9.950;2023-04-06T03:08:02;9.53;;;6.23;;
26040;SDS011;13816;53.628;9.950;2023-04-06T03:10:38;7.33;;;5.87;;
26040;SDS011;13816;53.628;9.950;2023-04-06T03:13:04;9.33;;;6.50;;
26040;SDS011;13816;53.628;9.950;2023-04-06T03:15:48;7.30;;;5.33;;
26040;SDS011;13816;53.628;9.950;2023-04-06T03:18:20;12.50;;;7.57;;
26040;SDS011;13816;53.628;9.950;2023-04-06T03:20:48;7.80;;;6.47;;
26040;SDS011;13816;53.628;9.950;2023-04-06T03:23:16;11.70;;;6.70;;
26040;SDS011;13816;53.628;9.950;2023-04-06T03:25:44;10.80;;;6.83;;
26040;SDS011;13816;53.628;9.950;2023-04-06T03:28:14;8.67;;;5.37;;
26040;SDS011;13816;53.628;9.950;2023-04-06T03:30:51;7.30;;;6.30;;
26040;SDS011;13816;53.628;9.950;2023-04-06T03:33:28;9.10;;;6.80;;
26040;SDS011;13816;53.628;9.950;2023-04-06T03:35:55;8.73;;;6.17;;
26040;SDS011;13816;53.628;9.950;2023-04-06T03:38:24;10.70;;;6.20;;
26040;SDS011;13816;53.628;9.950;2023-04-06T03:40:51;10.30;;;6.10;;
26040;SDS011;13816;53.628;9.950;2023-04-06T03:43:21;9.70;;;7.27;;
26040;SDS011;13816;53.628;9.950;2023-04-06T03:45:48;8.17;;;5.80;;
26040;SDS011;13816;53.628;9.950;2023-04-06T03:48:14;14.50;;;6.67;;
26040;SDS011;13816;53.628;9.950;2023-04-06T03:50:41;13.53;;;6.27;;
26040;SDS011;13816;53.628;9.950;2023-04-06T03:53:08;10.53;;;6.50;;
26040;SDS011;13816;53.628;9.950;2023-04-06T03:55:34;11.47;;;7.70;;
26040;SDS011;13816;53.628;9.950;2023-04-06T03:58:00;8.70;;;5.80;;
26040;SDS011;13816;53.628;9.950;2023-04-06T04:00:27;13.30;;;6.13;;
26040;SDS011;13816;53.628;9.950;2023-04-06T04:02:54;8.93;;;6.40;;
26040;SDS011;13816;53.628;9.950;2023-04-06T04:05:20;9.97;;;6.57;;
26040;SDS011;13816;53.628;9.950;2023-04-06T04:07:51;9.63;;;6.57;;
26040;SDS011;13816;53.628;9.950;2023-04-06T04:10:21;10.97;;;6.57;;
26040;SDS011;13816;53.628;9.950;2023-04-06T04:12:47;15.40;;;6.17;;
26040;SDS011;13816;53.628;9.950;2023-04-06T04:15:13;7.90;;;6.83;;
26040;SDS011;13816;53.628;9.950;2023-04-06T04:17:39;7.33;;;6.30;;
26040;SDS011;13816;53.628;9.950;2023-04-06T04:20:06;7.60;;;6.20;;
26040;SDS011;13816;53.628;9.950;2023-04-06T04:22:33;14.57;;;7.87;;
26040;SDS011;13816;53.628;9.950;2023-04-06T04:24:59;12.47;;;7.00;;
26040;SDS011;13816;53.628;9.950;2023-04-06T04:27:28;10.03;;;6.93;;
26040;SDS011;13816;53.628;9.950;2023-04-06T04:29:54;15.53;;;7.20;;
26040;SDS011;13816;53.628;9.950;2023-04-06T04:32:20;7.47;;;6.67;;
26040;SDS011;13816;53.628;9.950;2023-04-06T04:34:48;9.80;;;6.97;;
26040;SDS011;13816;53.628;9.950;2023-04-06T04:37:28;9.43;;;6.83;;
26040;SDS011;13816;53.628;9.950;2023-04-06T04:39:55;10.83;;;7.20;;
26040;SDS011;13816;53.628;9.950;2023-04-06T04:42:21;9.07;;;6.70;;
26040;SDS011;13816;53.628;9.950;2023-04-06T04:44:51;11.10;;;7.47;;
26040;SDS011;13816;53.628;9.950;2023-04-06T04:47:29;11.10;;;7.00;;
26040;SDS011;13816;53.628;9.950;2023-04-06T04:49:56;17.97;;;6.97;;
26040;SDS011;13816;53.628;9.950;2023-04-06T04:52:24;7.43;;;6.53;;
26040;SDS011;13816;53.628;9.950;2023-04-06T04:54:57;8.97;;;7.03;;
26040;SDS011;13816;53.628;9.950;2023-04-06T04:57:26;11.57;;;7.03;;
26040;SDS011;13816;53.628;9.950;2023-04-06T04:59:53;10.60;;;7.90;;
26040;SDS011;13816;53.628;9.950;2023-04-06T05:02:19;12.23;;;7.60;;
26040;SDS011;13816;53.628;9.950;2023-04-06T05:04:56;9.53;;;6.30;;
26040;SDS011;13816;53.628;9.950;2023-04-06T05:07:24;10.10;;;7.23;;
26040;SDS011;13816;53.628;9.950;2023-04-06T05:09:53;11.10;;;7.17;;
26040;SDS011;13816;53.628;9.950;2023-04-06T05:12:23;16.40;;;7.40;;
26040;SDS011;13816;53.628;9.950;2023-04-06T05:14:59;13.33;;;7.70;;
26040;SDS011;13816;53.628;9.950;2023-04-06T05:17:26;10.67;;;7.77;;
26040;SDS011;13816;53.628;9.950;2023-04-06T05:19:52;17.40;;;7.80;;
26040;SDS011;13816;53.628;9.950;2023-04-06T05:22:22;9.73;;;7.30;;
26040;SDS011;13816;53.628;9.950;2023-04-06T05:24:57;6.80;;;6.10;;
26040;SDS011;13816;53.628;9.950;2023-04-06T05:27:23;9.10;;;7.27;;
26040;SDS011;13816;53.628;9.950;2023-04-06T05:29:51;9.47;;;7.47;;
26040;SDS011;13816;53.628;9.950;2023-04-06T05:32:17;11.40;;;7.80;;
26040;SDS011;13816;53.628;9.950;2023-04-06T05:34:49;10.80;;;7.70;;
26040;SDS011;13816;53.628;9.950;2023-04-06T05:37:15;9.70;;;6.90;;
26040;SDS011;13816;53.628;9.950;2023-04-06T05:39:41;11.30;;;7.40;;
26040;SDS011;13816;53.628;9.950;2023-04-06T05:42:08;8.60;;;7.73;;
26040;SDS011;13816;53.628;9.950;2023-04-06T05:44:49;10.00;;;7.50;;
26040;SDS011;13816;53.628;9.950;2023-04-06T05:47:16;10.47;;;7.20;;
26040;SDS011;13816;53.628;9.950;2023-04-06T05:49:45;8.20;;;6.50;;
26040;SDS011;13816;53.628;9.950;2023-04-06T05:52:19;14.53;;;7.30;;
26040;SDS011;13816;53.628;9.950;2023-04-06T05:54:47;10.20;;;7.17;;
26040;SDS011;13816;53.628;9.950;2023-04-06T05:57:14;16.63;;;7.47;;
26040;SDS011;13816;53.628;9.950;2023-04-06T05:59:42;13.50;;;7.50;;
26040;SDS011;13816;53.628;9.950;2023-04-06T06:02:10;12.37;;;6.80;;
26040;SDS011;13816;53.628;9.950;2023-04-06T06:04:40;9.90;;;7.30;;
26040;SDS011;13816;53.628;9.950;2023-04-06T06:07:07;8.40;;;7.30;;
26040;SDS011;13816;53.628;9.950;2023-04-06T06:09:40;13.30;;;7.70;;
26040;SDS011;13816;53.628;9.950;2023-04-06T06:12:20;11.10;;;7.30;;
26040;SDS011;13816;53.628;9.950;2023-04-06T06:14:48;11.90;;;8.00;;
26040;SDS011;13816;53.628;9.950;2023-04-06T06:17:15;10.20;;;8.77;;
26040;SDS011;13816;53.628;9.950;2023-04-06T06:19:44;15.37;;;8.77;;
26040;SDS011;13816;53.628;9.950;2023-04-06T06:22:10;16.50;;;8.70;;
26040;SDS011;13816;53.628;9.950;2023-04-06T06:24:40;12.10;;;8.70;;
26040;SDS011;13816;53.628;9.950;2023-04-06T06:27:07;9.63;;;7.33;;
26040;SDS011;13816;53.628;9.950;2023-04-06T06:29:35;11.73;;;8.97;;
26040;SDS011;13816;53.628;9.950;2023-04-06T06:32:01;11.33;;;9.63;;
26040;SDS011;13816;53.628;9.950;2023-04-06T06:34:28;12.10;;;8.63;;
26040;SDS011;13816;53.628;9.950;2023-04-06T06:36:57;14.70;;;8.83;;
26040;SDS011;13816;53.628;9.950;2023-04-06T06:39:23;14.53;;;8.53;;
26040;SDS011;13816;53.628;9.950;2023-04-06T06:41:50;13.43;;;8.30;;
26040;SDS011;13816;53.628;9.950;2023-04-06T06:44:21;15.50;;;10.10;;
26040;SDS011;13816;53.628;9.950;2023-04-06T06:46:47;20.10;;;9.30;;
26040;SDS011;13816;53.628;9.950;2023-04-06T06:49:13;9.70;;;8.70;;
26040;SDS011;13816;53.628;9.950;2023-04-06T06:51:40;14.47;;;8.77;;
26040;SDS011;13816;53.628;9.950;2023-04-06T06:54:06;11.70;;;9.13;;
26040;SDS011;13816;53.628;9.950;2023-04-06T06:56:34;11.37;;;9.37;;
26040;SDS011;13816;53.628;9.950;2023-04-06T06:59:02;15.43;;;10.00;;
26040;SDS011;13816;53.628;9.950;2023-04-06T07:01:29;10.07;;;7.63;;
26040;SDS011;13816;53.628;9.950;2023-04-06T07:03:55;11.10;;;9.20;;
26040;SDS011;13816;53.628;9.950;2023-04-06T07:06:21;12.10;;;8.73;;
26040;SDS011;13816;53.628;9.950;2023-04-06T07:08:47;12.83;;;8.53;;
26040;SDS011;13816;53.628;9.950;2023-04-06T07:11:13;13.50;;;9.67;;
26040;SDS011;13816;53.628;9.950;2023-04-06T07:13:40;13.63;;;8.60;;
26040;SDS011;13816;53.628;9.950;2023-04-06T07:16:06;11.00;;;9.03;;
26040;SDS011;13816;53.628;9.950;2023-04-06T07:18:32;12.47;;;9.23;;
26040;SDS011;13816;53.628;9.950;2023-04-06T07:20:58;13.33;;;7.43;;
26040;SDS011;13816;53.628;9.950;2023-04-06T07:23:24;25.40;;;9.03;;
26040;SDS011;13816;53.628;9.950;2023-04-06T07:25:51;15.10;;;10.10;;
26040;SDS011;13816;53.628;9.950;2023-04-06T07:28:18;10.20;;;7.07;;
26040;SDS011;13816;53.628;9.950;2023-04-06T07:30:45;9.93;;;7.10;;
26040;SDS011;13816;53.628;9.950;2023-04-06T07:33:11;10.43;;;7.20;;
26040;SDS011;13816;53.628;9.950;2023-04-06T07:35:39;7.73;;;6.23;;
26040;SDS011;13816;53.628;9.950;2023-04-06T07:38:06;9.20;;;6.90;;
26040;SDS011;13816;53.628;9.950;2023-04-06T07:40:34;11.53;;;7.40;;
26040;SDS011;13816;53.628;9.950;2023-04-06T07:43:00;10.27;;;6.50;;
26040;SDS011;13816;53.628;9.950;2023-04-06T07:45:27;8.70;;;5.90;;
26040;SDS011;13816;53.628;9.950;2023-04-06T07:47:54;7.80;;;6.33;;
26040;SDS011;13816;53.628;9.950;2023-04-06T07:50:23;9.47;;;6.30;;
26040;SDS011;13816;53.628;9.950;2023-04-06T07:52:49;9.17;;;6.67;;
26040;SDS011;13816;53.628;9.950;2023-04-06T07:55:15;13.87;;;6.93;;
26040;SDS011;13816;53.628;9.950;2023-04-06T07:57:42;9.00;;;6.10;;
26040;SDS011;13816;53.628;9.950;2023-04-06T08:00:08;9.87;;;5.40;;
26040;SDS011;13816;53.628;9.950;2023-04-06T08:02:37;11.83;;;5.73;;
26040;SDS011;13816;53.628;9.950;2023-04-06T08:05:03;9.03;;;5.97;;
26040;SDS011;13816;53.628;9.950;2023-04-06T08:07:30;10.90;;;6.00;;
26040;SDS011;13816;53.628;9.950;2023-04-06T08:09:57;12.83;;;5.90;;
26040;SDS011;13816;53.628;9.950;2023-04-06T08:12:23;10.27;;;5.93;;
26040;SDS011;13816;53.628;9.950;2023-04-06T08:14:49;10.83;;;6.40;;
26040;SDS011;13816;53.628;9.950;2023-04-06T08:17:15;6.87;;;5.93;;
26040;SDS011;13816;53.628;9.950;2023-04-06T08:19:44;9.80;;;6.93;;
26040;SDS011;13816;53.628;9.950;2023-04-06T08:22:11;6.17;;;5.13;;
26040;SDS011;13816;53.628;9.950;2023-04-06T08:24:37;7.27;;;5.43;;
26040;SDS011;13816;53.628;9.950;2023-04-06T08:27:03;9.53;;;5.80;;
26040;SDS011;13816;53.628;9.950;2023-04-06T08:29:29;12.27;;;5.40;;
26040;SDS011;13816;53.628;9.950;2023-04-06T08:31:55;11.10;;;4.90;;
26040;SDS011;13816;53.628;9.950;2023-04-06T08:34:21;6.80;;;5.60;;
26040;SDS011;13816;53.628;9.950;2023-04-06T08:36:48;7.33;;;5.90;;
26040;SDS011;13816;53.628;9.950;2023-04-06T08:39:18;11.10;;;5.03;;
26040;SDS011;13816;53.628;9.950;2023-04-06T08:41:50;15.10;;;5.00;;
26040;SDS011;13816;53.628;9.950;2023-04-06T08:44:17;8.13;;;5.50;;
26040;SDS011;13816;53.628;9.950;2023-04-06T08:46:44;15.50;;;5.53;;
26040;SDS011;13816;53.628;9.950;2023-04-06T08:49:10;7.83;;;5.50;;
26040;SDS011;13816;53.628;9.950;2023-04-06T08:51:36;6.57;;;5.27;;
26040;SDS011;13816;53.628;9.950;2023-04-06T08:54:03;8.53;;;5.60;;
26040;SDS011;13816;53.628;9.950;2023-04-06T08:56:29;7.57;;;5.70;;
26040;SDS011;13816;53.628;9.950;2023-04-06T08:58:56;10.43;;;6.40;;
26040;SDS011;13816;53.628;9.950;2023-04-06T09:01:24;9.90;;;5.97;;
26040;SDS011;13816;53.628;9.950;2023-04-06T09:03:51;11.77;;;5.80;;
26040;SDS011;13816;53.628;9.950;2023-04-06T09:06:20;6.67;;;5.10;;
26040;SDS011;13816;53.628;9.950;2023-04-06T09:08:47;8.17;;;5.77;;
26040;SDS011;13816;53.628;9.950;2023-04-06T09:11:13;6.37;;;5.40;;
26040;SDS011;13816;53.628;9.950;2023-04-06T09:13:49;7.40;;;5.90;;
26040;SDS011;13816;53.628;9.950;2023-04-06T09:16:16;8.70;;;5.47;;
26040;SDS011;13816;53.628;9.950;2023-04-06T09:18:43;9.20;;;5.30;;
26040;SDS011;13816;53.628;9.950;2023-04-06T09:21:10;10.17;;;5.67;;
26040;SDS011;13816;53.628;9.950;2023-04-06T09:23:36;8.77;;;5.87;;
26040;SDS011;13816;53.628;9.950;2023-04-06T09:26:12;6.73;;;5.30;;
26040;SDS011;13816;53.628;9.950;2023-04-06T09:28:50;10.33;;;5.20;;
26040;SDS011;13816;53.628;9.950;2023-04-06T09:31:17;7.80;;;4.53;;
26040;SDS011;13816;53.628;9.950;2023-04-06T09:33:47;6.93;;;4.37;;
26040;SDS011;13816;53.628;9.950;2023-04-06T09:36:13;6.83;;;4.67;;
26040;SDS011;13816;53.628;9.950;2023-04-06T09:38:54;6.13;;;4.53;;
26040;SDS011;13816;53.628;9.950;2023-04-06T09:41:21;9.97;;;5.80;;
26040;SDS011;13816;53.628;9.950;2023-04-06T09:43:49;9.03;;;4.60;;
26040;SDS011;13816;53.628;9.950;2023-04-06T09:46:15;5.63;;;3.93;;
26040;SDS011;13816;53.628;9.950;2023-04-06T09:48:42;11.50;;;5.27;;
26040;SDS011;13816;53.628;9.950;2023-04-06T09:51:08;7.23;;;5.00;;
26040;SDS011;13816;53.628;9.950;2023-04-06T09:53:37;6.50;;;4.70;;
26040;SDS011;13816;53.628;9.950;2023-04-06T09:56:04;8.80;;;4.80;;
26040;SDS011;13816;53.628;9.950;2023-04-06T09:58:34;7.43;;;5.10;;
26040;SDS011;13816;53.628;9.950;2023-04-06T10:01:11;8.20;;;5.00;;
26040;SDS011;13816;53.628;9.950;2023-04-06T10:06:12;8.47;;;4.90;;
26040;SDS011;13816;53.628;9.950;2023-04-06T10:08:39;11.43;;;5.13;;
26040;SDS011;13816;53.628;9.950;2023-04-06T10:11:10;9.00;;;5.23;;
26040;SDS011;13816;53.628;9.950;2023-04-06T10:13:39;6.70;;;4.63;;
26040;SDS011;13816;53.628;9.950;2023-04-06T10:16:07;7.10;;;4.60;;
26040;SDS011;13816;53.628;9.950;2023-04-06T10:18:34;12.00;;;3.80;;
26040;SDS011;13816;53.628;9.950;2023-04-06T10:21:11;6.53;;;3.60;;
26040;SDS011;13816;53.628;9.950;2023-04-06T10:23:51;5.10;;;3.80;;
26040;SDS011;13816;53.628;9.950;2023-04-06T10:26:19;6.53;;;3.83;;
26040;SDS011;13816;53.628;9.950;2023-04-06T10:28:46;8.60;;;4.03;;
26040;SDS011;13816;53.628;9.950;2023-04-06T10:31:13;17.27;;;4.70;;
26040;SDS011;13816;53.628;9.950;2023-04-06T10:33:52;7.50;;;4.87;;
26040;SDS011;13816;53.628;9.950;2023-04-06T10:36:23;6.07;;;4.40;;
26040;SDS011;13816;53.628;9.950;2023-04-06T10:38:56;5.10;;;4.23;;
26040;SDS011;13816;53.628;9.950;2023-04-06T10:41:35;6.40;;;4.07;;
26040;SDS011;13816;53.628;9.950;2023-04-06T10:44:01;7.03;;;4.67;;
26040;SDS011;13816;53.628;9.950;2023-04-06T10:46:34;6.40;;;4.47;;
26040;SDS011;13816;53.628;9.950;2023-04-06T10:49:10;4.80;;;4.23;;
26040;SDS011;13816;53.628;9.950;2023-04-06T10:51:37;8.57;;;4.97;;
26040;SDS011;13816;53.628;9.950;2023-04-06T10:54:09;8.90;;;4.70;;
26040;SDS011;13816;53.628;9.950;2023-04-06T10:56:39;6.57;;;5.20;;
26040;SDS011;13816;53.628;9.950;2023-04-06T10:59:05;6.60;;;4.53;;
26040;SDS011;13816;53.628;9.950;2023-04-06T11:01:32;8.10;;;5.20;;
26040;SDS011;13816;53.628;9.950;2023-04-06T11:03:59;13.03;;;5.20;;
26040;SDS011;13816;53.628;9.950;2023-04-06T11:06:27;9.13;;;5.30;;
26040;SDS011;13816;53.628;9.950;2023-04-06T11:08:55;6.00;;;4.80;;
26040;SDS011;13816;53.628;9.950;2023-04-06T11:11:22;7.67;;;5.40;;
26040;SDS011;13816;53.628;9.950;2023-04-06T11:13:54;6.27;;;5.67;;
26040;SDS011;13816;53.628;9.950;2023-04-06T11:16:25;6.70;;;5.60;;
26040;SDS011;13816;53.628;9.950;2023-04-06T11:21:37;6.90;;;5.60;;
26040;SDS011;13816;53.628;9.950;2023-04-06T11:24:21;8.27;;;6.20;;
26040;SDS011;13816;53.628;9.950;2023-04-06T11:26:48;7.57;;;5.90;;
26040;SDS011;13816;53.628;9.950;2023-04-06T11:29:23;9.87;;;6.20;;
26040;SDS011;13816;53.628;9.950;2023-04-06T11:31:50;8.10;;;6.40;;
26040;SDS011;13816;53.628;9.950;2023-04-06T11:34:23;8.67;;;6.50;;
26040;SDS011;13816;53.628;9.950;2023-04-06T11:37:00;7.70;;;6.13;;
26040;SDS011;13816;53.628;9.950;2023-04-06T11:39:27;11.60;;;6.53;;
26040;SDS011;13816;53.628;9.950;2023-04-06T11:41:54;11.63;;;6.50;;
26040;SDS011;13816;53.628;9.950;2023-04-06T11:47:02;9.40;;;6.70;;
26040;SDS011;13816;53.628;9.950;2023-04-06T11:49:29;12.57;;;7.43;;
26040;SDS011;13816;53.628;9.950;2023-04-06T11:51:56;10.50;;;8.13;;
26040;SDS011;13816;53.628;9.950;2023-04-06T11:54:32;9.87;;;7.20;;
26040;SDS011;13816;53.628;9.950;2023-04-06T11:56:58;10.57;;;7.50;;
26040;SDS011;13816;53.628;9.950;2023-04-06T11:59:26;9.07;;;7.57;;
26040;SDS011;13816;53.628;9.950;2023-04-06T12:01:52;9.70;;;7.07;;
26040;SDS011;13816;53.628;9.950;2023-04-06T12:04:19;15.00;;;8.00;;
26040;SDS011;13816;53.628;9.950;2023-04-06T12:06:45;9.13;;;7.53;;
26040;SDS011;13816;53.628;9.950;2023-04-06T12:09:11;9.70;;;7.07;;
26040;SDS011;13816;53.628;9.950;2023-04-06T12:11:38;9.13;;;6.80;;
26040;SDS011;13816;53.628;9.950;2023-04-06T12:14:04;9.80;;;7.10;;
26040;SDS011;13816;53.628;9.950;2023-04-06T12:16:33;10.80;;;6.80;;
26040;SDS011;13816;53.628;9.950;2023-04-06T12:19:00;10.33;;;6.80;;
26040;SDS011;13816;53.628;9.950;2023-04-06T12:21:26;8.73;;;6.90;;
26040;SDS011;13816;53.628;9.950;2023-04-06T12:23:53;9.40;;;6.90;;
26040;SDS011;13816;53.628;9.950;2023-04-06T12:26:20;11.50;;;8.40;;
26040;SDS011;13816;53.628;9.950;2023-04-06T12:28:46;9.90;;;7.50;;
26040;SDS011;13816;53.628;9.950;2023-04-06T12:31:16;11.23;;;7.67;;
26040;SDS011;13816;53.628;9.950;2023-04-06T12:33:43;9.63;;;7.03;;
26040;SDS011;13816;53.628;9.950;2023-04-06T12:36:13;8.40;;;7.03;;
26040;SDS011;13816;53.628;9.950;2023-04-06T12:38:40;10.73;;;7.23;;
26040;SDS011;13816;53.628;9.950;2023-04-06T12:41:07;8.97;;;6.90;;
26040;SDS011;13816;53.628;9.950;2023-04-06T12:43:33;10.90;;;6.90;;
26040;SDS011;13816;53.628;9.950;2023-04-06T12:45:59;9.20;;;6.63;;
26040;SDS011;13816;53.628;9.950;2023-04-06T12:48:25;11.00;;;7.60;;
26040;SDS011;13816;53.628;9.950;2023-04-06T12:50:59;11.30;;;7.27;;
26040;SDS011;13816;53.628;9.950;2023-04-06T12:53:25;10.30;;;6.60;;
26040;SDS011;13816;53.628;9.950;2023-04-06T12:55:52;8.10;;;7.23;;
26040;SDS011;13816;53.628;9.950;2023-04-06T12:58:19;14.50;;;8.00;;
26040;SDS011;13816;53.628;9.950;2023-04-06T13:00:46;10.80;;;7.70;;
26040;SDS011;13816;53.628;9.950;2023-04-06T13:03:12;8.73;;;6.97;;
26040;SDS011;13816;53.628;9.950;2023-04-06T13:05:48;9.70;;;6.97;;
26040;SDS011;13816;53.628;9.950;2023-04-06T13:08:15;8.93;;;6.90;;
26040;SDS011;13816;53.628;9.950;2023-04-06T13:10:48;12.30;;;7.70;;
26040;SDS011;13816;53.628;9.950;2023-04-06T13:13:14;10.47;;;7.50;;
26040;SDS011;13816;53.628;9.950;2023-04-06T13:15:41;12.70;;;8.53;;
26040;SDS011;13816;53.628;9.950;2023-04-06T13:18:07;10.50;;;7.03;;
26040;SDS011;13816;53.628;9.950;2023-04-06T13:20:33;11.87;;;8.40;;
26040;SDS011;13816;53.628;9.950;2023-04-06T13:23:00;10.60;;;7.00;;
26040;SDS011;13816;53.628;9.950;2023-04-06T13:25:26;11.07;;;7.80;;
26040;SDS011;13816;53.628;9.950;2023-04-06T13:27:53;13.83;;;6.90;;
26040;SDS011;13816;53.628;9.950;2023-04-06T13:30:20;13.10;;;8.20;;
26040;SDS011;13816;53.628;9.950;2023-04-06T13:32:46;9.10;;;8.07;;
26040;SDS011;13816;53.628;9.950;2023-04-06T13:35:12;10.67;;;7.93;;
26040;SDS011;13816;53.628;9.950;2023-04-06T13:37:38;10.20;;;8.10;;
26040;SDS011;13816;53.628;9.950;2023-04-06T13:40:05;10.40;;;7.27;;
26040;SDS011;13816;53.628;9.950;2023-04-06T13:42:31;13.13;;;8.23;;
26040;SDS011;13816;53.628;9.950;2023-04-06T13:45:00;9.87;;;7.33;;
26040;SDS011;13816;53.628;9.950;2023-04-06T13:47:26;10.77;;;8.37;;
26040;SDS011;13816;53.628;9.950;2023-04-06T13:49:52;9.00;;;7.03;;
26040;SDS011;13816;53.628;9.950;2023-04-06T13:52:19;13.23;;;7.70;;
26040;SDS011;13816;53.628;9.950;2023-04-06T13:54:45;12.63;;;7.43;;
26040;SDS011;13816;53.628;9.950;2023-04-06T13:57:11;11.40;;;8.40;;
26040;SDS011;13816;53.628;9.950;2023-04-06T13:59:38;12.03;;;8.73;;
26040;SDS011;13816;53.628;9.950;2023-04-06T14:02:05;10.00;;;7.17;;
26040;SDS011;13816;53.628;9.950;2023-04-06T14:04:31;18.23;;;8.00;;
26040;SDS011;13816;53.628;9.950;2023-04-06T14:06:58;16.50;;;8.53;;
26040;SDS011;13816;53.628;9.950;2023-04-06T14:09:24;9.67;;;7.83;;
26040;SDS011;13816;53.628;9.950;2023-04-06T14:11:51;11.30;;;8.73;;
26040;SDS011;13816;53.628;9.950;2023-04-06T14:14:17;11.03;;;7.77;;
26040;SDS011;13816;53.628;9.950;2023-04-06T14:16:44;11.67;;;8.20;;
26040;SDS011;13816;53.628;9.950;2023-04-06T14:19:13;10.07;;;7.87;;
26040;SDS011;13816;53.628;9.950;2023-04-06T14:21:43;13.43;;;8.17;;
26040;SDS011;13816;53.628;9.950;2023-04-06T14:24:09;9.83;;;7.10;;
26040;SDS011;13816;53.628;9.950;2023-04-06T14:26:36;10.93;;;8.00;;
26040;SDS011;13816;53.628;9.950;2023-04-06T14:29:03;13.40;;;8.23;;
26040;SDS011;13816;53.628;9.950;2023-04-06T14:31:29;10.53;;;7.60;;
26040;SDS011;13816;53.628;9.950;2023-04-06T14:33:55;11.40;;;7.30;;
26040;SDS011;13816;53.628;9.950;2023-04-06T14:36:22;18.60;;;7.93;;
26040;SDS011;13816;53.628;9.950;2023-04-06T14:38:48;13.50;;;7.60;;
26040;SDS011;13816;53.628;9.950;2023-04-06T14:41:17;11.60;;;7.80;;
26040;SDS011;13816;53.628;9.950;2023-04-06T14:43:44;9.87;;;7.50;;
26040;SDS011;13816;53.628;9.950;2023-04-06T14:46:10;13.87;;;8.87;;
26040;SDS011;13816;53.628;9.950;2023-04-06T14:48:36;11.63;;;8.57;;
26040;SDS011;13816;53.628;9.950;2023-04-06T14:51:05;10.30;;;8.03;;
26040;SDS011;13816;53.628;9.950;2023-04-06T14:53:32;9.97;;;7.97;;
26040;SDS011;13816;53.628;9.950;2023-04-06T14:55:58;9.30;;;7.90;;